createdAt,value
2023-02-22T00:01:42.875Z,31.42
2023-02-22T00:04:11.495Z,30.88
2023-02-22T00:06:39.551Z,29.58
2023-02-22T00:09:09.179Z,26.05
2023-02-22T00:11:36.240Z,26.98
2023-02-22T00:14:03.269Z,30.40
2023-02-22T00:16:31.021Z,36.05
2023-02-22T00:18:58.114Z,37.08
2023-02-22T00:21:25.128Z,31.98
2023-02-22T00:23:54.570Z,33.25
2023-02-22T00:26:23.350Z,34.22
2023-02-22T00:28:51.888Z,29.70
2023-02-22T00:31:19.997Z,39.63
2023-02-22T00:33:47.303Z,46.88
2023-02-22T00:36:14.869Z,34.38
2023-02-22T00:38:42.255Z,31.85
2023-02-22T00:41:12.261Z,41.03
2023-02-22T00:43:39.328Z,45.65
2023-02-22T00:46:06.393Z,46.13
2023-02-22T00:48:33.469Z,34.65
2023-02-22T00:51:00.478Z,37.55
2023-02-22T00:53:27.569Z,33.65
2023-02-22T00:55:54.643Z,33.25
2023-02-22T00:58:22.173Z,30.98
2023-02-22T01:00:49.570Z,33.15
2023-02-22T01:03:18.211Z,43.78
2023-02-22T01:05:45.513Z,37.40
2023-02-22T01:08:13.905Z,34.15
2023-02-22T01:10:41.136Z,33.03
2023-02-22T01:13:11.927Z,37.33
2023-02-22T01:15:39.947Z,30.45
2023-02-22T01:18:07.394Z,33.20
2023-02-22T01:20:34.509Z,37.15
2023-02-22T01:23:03.545Z,38.65
2023-02-22T01:25:31.204Z,32.20
2023-02-22T01:27:59.152Z,36.80
2023-02-22T01:30:30.703Z,37.10
2023-02-22T01:32:58.095Z,36.40
2023-02-22T01:35:27.816Z,28.90
2023-02-22T01:37:54.919Z,27.95
2023-02-22T01:40:27.056Z,36.78
2023-02-22T01:42:57.615Z,32.13
2023-02-22T01:45:30.946Z,29.65
2023-02-22T01:48:00.631Z,28.38
2023-02-22T01:50:28.210Z,35.88
2023-02-22T01:52:55.478Z,28.02
2023-02-22T01:55:22.611Z,32.90
2023-02-22T01:57:49.763Z,21.35
2023-02-22T02:00:20.164Z,29.48
2023-02-22T02:02:54.665Z,24.73
2023-02-22T02:05:24.163Z,29.48
2023-02-22T02:07:51.357Z,39.78
2023-02-22T02:10:18.400Z,31.08
2023-02-22T02:12:48.153Z,40.78
2023-02-22T02:15:32.442Z,26.50
2023-02-22T02:18:01.291Z,39.50
2023-02-22T02:20:47.129Z,23.10
2023-02-22T02:23:33.070Z,39.75
2023-02-22T02:26:18.528Z,34.70
2023-02-22T02:28:51.335Z,33.15
2023-02-22T02:31:37.037Z,34.92
2023-02-22T02:34:16.539Z,28.45
2023-02-22T02:36:46.965Z,24.55
2023-02-22T02:39:52.661Z,24.17
2023-02-22T02:42:22.245Z,24.52
2023-02-22T02:44:59.171Z,24.15
2023-02-22T02:47:29.566Z,31.73
2023-02-22T02:50:08.774Z,27.63
2023-02-22T02:52:36.107Z,22.58
2023-02-22T02:55:06.890Z,22.63
2023-02-22T02:57:34.209Z,24.73
2023-02-22T03:00:01.342Z,19.77
2023-02-22T03:02:57.816Z,20.63
2023-02-22T03:05:41.494Z,17.95
2023-02-22T03:08:14.317Z,18.02
2023-02-22T03:10:50.327Z,22.45
2023-02-22T03:13:25.220Z,20.88
2023-02-22T03:15:56.981Z,25.55
2023-02-22T03:18:28.967Z,24.48
2023-02-22T03:21:01.691Z,24.77
2023-02-22T03:23:31.701Z,27.88
2023-02-22T03:26:05.316Z,23.50
2023-02-22T03:28:34.022Z,20.05
2023-02-22T03:31:03.308Z,19.80
2023-02-22T03:33:36.297Z,19.33
2023-02-22T03:36:18.692Z,21.10
2023-02-22T03:38:46.606Z,22.75
2023-02-22T03:41:16.149Z,19.08
2023-02-22T03:43:45.537Z,19.60
2023-02-22T03:46:13.322Z,23.33
2023-02-22T03:48:46.340Z,19.98
2023-02-22T03:51:16.776Z,17.58
2023-02-22T03:53:44.638Z,20.27
2023-02-22T03:56:13.965Z,18.42
2023-02-22T03:58:44.393Z,18.23
2023-02-22T04:01:11.924Z,17.10
2023-02-22T04:03:40.159Z,20.05
2023-02-22T04:06:07.386Z,20.75
2023-02-22T04:08:35.098Z,17.05
2023-02-22T04:11:02.109Z,19.13
2023-02-22T04:13:29.552Z,17.23
2023-02-22T04:15:56.610Z,17.75
2023-02-22T04:18:23.683Z,24.10
2023-02-22T04:20:51.617Z,24.98
2023-02-22T04:23:19.567Z,18.17
2023-02-22T04:25:46.646Z,22.20
2023-02-22T04:28:13.727Z,22.25
2023-02-22T04:30:40.849Z,17.92
2023-02-22T04:33:07.891Z,24.15
2023-02-22T04:35:35.646Z,19.45
2023-02-22T04:38:04.294Z,20.23
2023-02-22T04:40:31.402Z,22.88
2023-02-22T04:43:00.331Z,16.35
2023-02-22T04:45:27.550Z,19.98
2023-02-22T04:47:54.682Z,15.75
2023-02-22T04:50:21.903Z,21.45
2023-02-22T04:52:48.938Z,19.27
2023-02-22T04:55:16.691Z,23.27
2023-02-22T04:57:43.792Z,20.23
2023-02-22T05:00:11.170Z,18.17
2023-02-22T05:02:41.506Z,17.48
2023-02-22T05:05:08.609Z,20.08
2023-02-22T05:07:35.642Z,19.20
2023-02-22T05:10:02.878Z,19.55
2023-02-22T05:12:29.975Z,18.33
2023-02-22T05:14:57.110Z,16.17
2023-02-22T05:17:24.189Z,19.08
2023-02-22T05:19:51.263Z,20.92
2023-02-22T05:22:18.459Z,18.88
2023-02-22T05:24:45.523Z,22.05
2023-02-22T05:27:12.549Z,17.67
2023-02-22T05:29:39.698Z,18.08
2023-02-22T05:32:06.889Z,23.88
2023-02-22T05:34:33.939Z,20.15
2023-02-22T05:37:01.056Z,35.65
2023-02-22T05:39:28.089Z,25.35
2023-02-22T05:41:55.102Z,28.75
2023-02-22T05:44:22.176Z,26.52
2023-02-22T05:46:49.217Z,36.35
2023-02-22T05:49:16.451Z,32.00
2023-02-22T05:51:43.487Z,27.25
2023-02-22T05:54:10.570Z,26.70
2023-02-22T05:56:37.653Z,28.98
2023-02-22T05:59:04.780Z,27.13
2023-02-22T06:01:31.853Z,36.60
2023-02-22T06:03:58.885Z,21.50
2023-02-22T06:06:26.031Z,20.67
2023-02-22T06:08:53.097Z,22.88
2023-02-22T06:11:20.377Z,24.60
2023-02-22T06:13:51.535Z,30.70
2023-02-22T06:16:18.776Z,28.95
2023-02-22T06:18:45.990Z,22.20
2023-02-22T06:21:13.081Z,24.50
2023-02-22T06:23:40.098Z,19.45
2023-02-22T06:26:07.114Z,20.30
2023-02-22T06:28:34.188Z,22.00
2023-02-22T06:31:01.225Z,26.83
2023-02-22T06:33:28.286Z,21.00
2023-02-22T06:35:55.387Z,23.35
2023-02-22T06:38:23.188Z,29.58
2023-02-22T06:40:50.223Z,35.05
2023-02-22T06:43:17.350Z,22.65
2023-02-22T06:45:44.406Z,24.25
2023-02-22T06:48:11.420Z,26.60
2023-02-22T06:50:38.490Z,27.98
2023-02-22T06:53:05.868Z,23.05
2023-02-22T06:55:33.965Z,24.75
2023-02-22T06:58:01.477Z,27.17
2023-02-22T07:00:29.117Z,27.10
2023-02-22T07:02:56.704Z,39.72
2023-02-22T07:05:24.411Z,25.40
2023-02-22T07:07:55.332Z,32.22
2023-02-22T07:10:24.068Z,35.17
2023-02-22T07:12:52.453Z,29.20
2023-02-22T07:15:21.485Z,25.63
2023-02-22T07:17:49.012Z,35.60
2023-02-22T07:20:16.664Z,27.08
2023-02-22T07:22:43.795Z,28.17
2023-02-22T07:25:11.409Z,28.10
2023-02-22T07:27:39.299Z,26.10
2023-02-22T07:30:07.458Z,24.02
2023-02-22T07:32:34.569Z,25.83
2023-02-22T07:35:02.855Z,30.98
2023-02-22T07:37:30.260Z,24.95
2023-02-22T07:39:57.329Z,25.00
2023-02-22T07:42:24.354Z,25.20
2023-02-22T07:44:51.358Z,21.70
2023-02-22T07:47:20.586Z,27.70
2023-02-22T07:49:48.780Z,25.48
2023-02-22T07:52:17.571Z,23.90
2023-02-22T07:54:47.346Z,21.88
2023-02-22T07:57:14.403Z,24.17
2023-02-22T07:59:41.433Z,23.70
2023-02-22T08:02:15.890Z,19.52
2023-02-22T08:04:42.950Z,23.25
2023-02-22T08:07:10.061Z,24.02
2023-02-22T08:09:37.225Z,21.40
2023-02-22T08:12:04.308Z,23.63
2023-02-22T08:14:31.329Z,26.40
2023-02-22T08:16:58.397Z,26.80
2023-02-22T08:19:25.469Z,21.65
2023-02-22T08:21:52.588Z,23.08
2023-02-22T08:24:19.661Z,29.55
2023-02-22T08:26:47.206Z,38.63
2023-02-22T08:29:14.258Z,24.67
2023-02-22T08:31:41.616Z,25.30
2023-02-22T08:34:08.640Z,20.77
2023-02-22T08:36:35.725Z,21.48
2023-02-22T08:39:02.864Z,18.17
2023-02-22T08:41:30.331Z,19.70
2023-02-22T08:44:01.475Z,19.42
2023-02-22T08:46:28.848Z,22.63
2023-02-22T08:48:55.883Z,19.50
2023-02-22T08:51:23.003Z,21.77
2023-02-22T08:53:50.135Z,20.58
2023-02-22T08:56:17.142Z,20.43
2023-02-22T08:58:44.156Z,21.60
2023-02-22T09:01:11.191Z,20.77
2023-02-22T09:03:38.418Z,20.63
2023-02-22T09:06:08.008Z,20.17
2023-02-22T09:08:37.131Z,21.00
2023-02-22T09:11:04.205Z,23.40
2023-02-22T09:13:31.344Z,21.20
2023-02-22T09:15:58.391Z,19.53
2023-02-22T09:18:38.973Z,20.97
2023-02-22T09:21:11.703Z,22.93
2023-02-22T09:23:38.742Z,20.63
2023-02-22T09:26:10.889Z,20.63
2023-02-22T09:28:37.940Z,22.27
2023-02-22T09:31:05.046Z,24.50
2023-02-22T09:33:34.134Z,22.10
2023-02-22T09:36:02.382Z,24.30
2023-02-22T09:38:30.273Z,23.63
2023-02-22T09:41:12.175Z,21.90
2023-02-22T09:43:52.716Z,24.87
2023-02-22T09:46:37.129Z,25.90
2023-02-22T09:49:07.547Z,26.37
2023-02-22T09:52:03.892Z,27.50
2023-02-22T09:54:39.596Z,25.90
2023-02-22T09:57:09.809Z,34.80
2023-02-22T09:59:57.476Z,30.73
2023-02-22T10:02:28.453Z,31.57
2023-02-22T10:05:14.546Z,30.13
2023-02-22T10:07:45.791Z,25.60
2023-02-22T10:10:18.003Z,26.50
2023-02-22T10:12:53.210Z,27.13
2023-02-22T10:15:49.357Z,25.77
2023-02-22T10:18:32.592Z,30.00
2023-02-22T10:21:07.620Z,26.60
2023-02-22T10:23:37.758Z,31.30
2023-02-22T10:26:17.094Z,31.17
2023-02-22T10:28:48.300Z,23.63
2023-02-22T10:31:21.345Z,26.80
2023-02-22T10:33:52.190Z,24.43
2023-02-22T10:36:20.457Z,23.47
2023-02-22T10:38:52.285Z,28.20
2023-02-22T10:41:30.836Z,23.60
2023-02-22T10:43:58.116Z,22.47
2023-02-22T10:46:27.697Z,22.97
2023-02-22T10:48:58.161Z,20.33
2023-02-22T10:51:25.328Z,22.70
2023-02-22T10:54:10.872Z,20.13
2023-02-22T10:56:47.561Z,22.90
2023-02-22T10:59:27.035Z,21.20
2023-02-22T11:01:54.295Z,22.13
2023-02-22T11:04:23.069Z,23.50
2023-02-22T11:06:59.299Z,22.63
2023-02-22T11:09:28.924Z,22.83
2023-02-22T11:12:12.451Z,22.67
2023-02-22T11:14:39.591Z,23.20
2023-02-22T11:17:08.700Z,23.00
2023-02-22T11:19:38.245Z,23.30
2023-02-22T11:22:09.511Z,23.00
2023-02-22T11:24:49.245Z,27.10
2023-02-22T11:27:28.711Z,21.90
2023-02-22T11:29:57.633Z,23.13
2023-02-22T11:32:24.724Z,22.83
2023-02-22T11:35:03.581Z,23.57
2023-02-22T11:37:39.475Z,25.00
2023-02-22T11:40:19.960Z,22.13
2023-02-22T11:42:47.600Z,21.27
2023-02-22T11:45:23.832Z,23.60
2023-02-22T11:47:52.459Z,21.80
2023-02-22T11:50:25.711Z,23.23
2023-02-22T11:52:57.593Z,22.90
2023-02-22T11:55:41.788Z,21.90
2023-02-22T11:58:24.574Z,19.53
2023-02-22T12:01:18.119Z,25.67
2023-02-22T12:03:51.307Z,24.80
2023-02-22T12:06:26.878Z,19.00
2023-02-22T12:08:56.903Z,20.77
2023-02-22T12:11:28.347Z,21.00
2023-02-22T12:14:13.528Z,19.20
2023-02-22T12:16:54.840Z,18.60
2023-02-22T12:19:25.194Z,23.23
2023-02-22T12:21:55.212Z,19.00
2023-02-22T12:24:24.586Z,17.40
2023-02-22T12:26:54.815Z,19.63
2023-02-22T12:29:31.058Z,18.73
2023-02-22T12:31:58.098Z,19.10
2023-02-22T12:34:28.228Z,19.60
2023-02-22T12:36:55.498Z,21.70
2023-02-22T12:39:38.229Z,21.60
2023-02-22T12:42:37.321Z,21.70
2023-02-22T12:45:11.291Z,23.50
2023-02-22T12:47:42.404Z,21.27
2023-02-22T12:50:23.406Z,25.83
2023-02-22T12:52:53.846Z,23.33
2023-02-22T12:55:45.504Z,21.67
2023-02-22T12:58:28.892Z,22.60
2023-02-22T13:01:02.819Z,22.40
2023-02-22T13:03:30.660Z,22.90
2023-02-22T13:06:18.160Z,21.83
2023-02-22T13:08:59.971Z,20.67
2023-02-22T13:11:56.405Z,20.93
2023-02-22T13:14:23.409Z,23.50
2023-02-22T13:17:02.739Z,20.30
2023-02-22T13:19:40.787Z,22.57
2023-02-22T13:22:07.843Z,20.60
2023-02-22T13:24:53.184Z,25.73
2023-02-22T13:27:23.581Z,20.40
2023-02-22T13:29:52.873Z,20.87
2023-02-22T13:32:28.727Z,22.50
2023-02-22T13:35:14.335Z,21.00
2023-02-22T13:38:00.112Z,19.90
2023-02-22T13:40:46.095Z,21.47
2023-02-22T13:43:22.315Z,24.23
2023-02-22T13:46:08.113Z,19.50
2023-02-22T13:48:47.060Z,19.97
2023-02-22T13:51:33.025Z,17.80
2023-02-22T13:54:00.028Z,19.87
2023-02-22T13:56:30.110Z,19.63
2023-02-22T13:58:58.809Z,21.43
2023-02-22T14:01:41.041Z,19.50
2023-02-22T14:04:28.484Z,19.70
2023-02-22T14:07:00.487Z,16.57
2023-02-22T14:09:45.441Z,17.33
2023-02-22T14:12:30.966Z,20.47
2023-02-22T14:15:28.182Z,17.23
2023-02-22T14:18:00.950Z,19.40
2023-02-22T14:20:32.074Z,20.20
2023-02-22T14:23:19.782Z,19.73
2023-02-22T14:25:47.246Z,19.03
2023-02-22T14:28:33.154Z,19.60
2023-02-22T14:31:08.103Z,21.43
2023-02-22T14:33:54.188Z,20.63
2023-02-22T14:36:27.005Z,19.30
2023-02-22T14:38:55.321Z,20.20
2023-02-22T14:41:26.481Z,19.40
2023-02-22T14:43:57.212Z,19.50
2023-02-22T14:46:27.709Z,23.20
2023-02-22T14:48:59.246Z,22.07
2023-02-22T14:51:37.420Z,21.37
2023-02-22T14:54:08.456Z,26.17
2023-02-22T14:56:41.196Z,22.03
2023-02-22T14:59:42.059Z,21.40
2023-02-22T15:02:12.985Z,19.90
2023-02-22T15:04:43.959Z,20.07
2023-02-22T15:07:22.496Z,23.47
2023-02-22T15:09:49.980Z,20.60
2023-02-22T15:12:29.777Z,21.20
2023-02-22T15:15:14.166Z,21.23
2023-02-22T15:17:41.441Z,20.40
2023-02-22T15:20:12.508Z,22.43
2023-02-22T15:22:39.522Z,19.63
2023-02-22T15:25:08.294Z,20.27
2023-02-22T15:27:37.323Z,23.13
2023-02-22T15:30:10.338Z,19.60
2023-02-22T15:32:49.974Z,21.23
2023-02-22T15:35:24.424Z,20.40
2023-02-22T15:38:06.050Z,22.13
2023-02-22T15:40:33.648Z,23.90
2023-02-22T15:43:11.019Z,20.60
2023-02-22T15:45:42.843Z,23.70
2023-02-22T15:48:11.327Z,22.60
2023-02-22T15:50:38.545Z,22.60
2023-02-22T15:53:10.056Z,23.93
2023-02-22T15:55:37.119Z,24.90
2023-02-22T15:58:10.776Z,22.50
2023-02-22T16:00:39.183Z,24.90
2023-02-22T16:03:09.249Z,22.00
2023-02-22T16:05:47.996Z,25.90
2023-02-22T16:08:17.902Z,26.47
2023-02-22T16:10:51.243Z,22.73
2023-02-22T16:13:32.148Z,24.00
2023-02-22T16:16:04.836Z,23.60
2023-02-22T16:18:31.826Z,26.70
2023-02-22T16:21:03.185Z,25.63
2023-02-22T16:23:30.621Z,25.47
2023-02-22T16:26:06.605Z,26.23
2023-02-22T16:28:35.608Z,21.47
2023-02-22T16:31:03.665Z,21.97
2023-02-22T16:33:33.790Z,25.70
2023-02-22T16:36:05.335Z,26.60
2023-02-22T16:38:33.352Z,28.67
2023-02-22T16:41:00.475Z,29.33
2023-02-22T16:43:33.297Z,25.53
2023-02-22T16:46:03.792Z,23.17
2023-02-22T16:48:38.406Z,25.93
2023-02-22T16:51:18.588Z,26.67
2023-02-22T16:53:45.733Z,30.87
2023-02-22T16:56:16.165Z,26.10
2023-02-22T16:58:43.874Z,23.37
2023-02-22T17:01:12.747Z,26.63
2023-02-22T17:03:40.137Z,22.40
2023-02-22T17:06:10.328Z,24.83
2023-02-22T17:08:38.396Z,18.30
2023-02-22T17:11:05.738Z,27.23
2023-02-22T17:13:32.960Z,21.63
2023-02-22T17:16:00.033Z,23.20
2023-02-22T17:18:28.696Z,31.33
2023-02-22T17:20:56.156Z,35.43
2023-02-22T17:23:24.179Z,30.20
2023-02-22T17:25:53.531Z,26.23
2023-02-22T17:28:21.187Z,22.37
2023-02-22T17:30:48.938Z,26.70
2023-02-22T17:33:17.926Z,20.97
2023-02-22T17:35:46.843Z,22.47
2023-02-22T17:38:18.292Z,23.07
2023-02-22T17:40:48.057Z,28.13
2023-02-22T17:43:15.537Z,22.13
2023-02-22T17:45:43.241Z,23.40
2023-02-22T17:48:10.382Z,21.23
2023-02-22T17:50:38.116Z,23.30
2023-02-22T17:53:05.563Z,21.87
2023-02-22T17:55:34.273Z,21.40
2023-02-22T17:58:01.569Z,18.93
2023-02-22T18:00:33.304Z,18.57
2023-02-22T18:03:02.496Z,26.80
2023-02-22T18:05:30.217Z,22.23
2023-02-22T18:07:57.297Z,19.67
2023-02-22T18:10:26.280Z,22.77
2023-02-22T18:12:55.072Z,20.50
2023-02-22T18:15:22.142Z,18.97
2023-02-22T18:17:49.346Z,19.90
2023-02-22T18:20:30.937Z,16.80
2023-02-22T18:22:59.617Z,18.60
2023-02-22T18:25:27.145Z,19.03
2023-02-22T18:27:54.887Z,19.00
2023-02-22T18:30:22.294Z,23.10
2023-02-22T18:32:49.812Z,25.60
2023-02-22T18:35:16.840Z,20.33
2023-02-22T18:37:44.490Z,20.27
2023-02-22T18:40:12.100Z,17.87
2023-02-22T18:42:39.716Z,21.50
2023-02-22T18:45:07.862Z,20.43
2023-02-22T18:47:42.179Z,20.40
2023-02-22T18:50:09.840Z,24.07
2023-02-22T18:52:46.320Z,21.53
2023-02-22T18:55:14.435Z,20.20
2023-02-22T18:57:41.644Z,20.90
2023-02-22T19:00:09.955Z,22.43
2023-02-22T19:02:37.213Z,22.53
2023-02-22T19:05:06.192Z,18.87
2023-02-22T19:07:34.105Z,21.40
2023-02-22T19:10:02.465Z,20.97
2023-02-22T19:12:31.465Z,24.53
2023-02-22T19:14:59.367Z,24.63
2023-02-22T19:17:28.420Z,21.30
2023-02-22T19:19:55.829Z,25.90
2023-02-22T19:22:25.932Z,25.53
2023-02-22T19:24:54.109Z,19.67
2023-02-22T19:27:22.680Z,19.90
2023-02-22T19:29:50.180Z,20.63
2023-02-22T19:32:17.733Z,20.27
2023-02-22T19:34:45.115Z,19.17
2023-02-22T19:37:13.008Z,21.97
2023-02-22T19:39:42.135Z,24.67
2023-02-22T19:42:10.176Z,16.97
2023-02-22T19:44:37.556Z,20.60
2023-02-22T19:47:08.896Z,19.07
2023-02-22T19:49:37.086Z,22.93
2023-02-22T19:52:06.533Z,17.47
2023-02-22T19:54:33.963Z,25.57
2023-02-22T19:57:01.190Z,22.63
2023-02-22T19:59:28.926Z,23.60
2023-02-22T20:01:56.586Z,24.43
2023-02-22T20:04:24.433Z,20.70
2023-02-22T20:06:54.431Z,20.50
2023-02-22T20:09:23.811Z,19.43
2023-02-22T20:11:54.247Z,20.80
2023-02-22T20:14:23.377Z,19.77
2023-02-22T20:16:51.165Z,22.43
2023-02-22T20:19:18.287Z,21.23
2023-02-22T20:21:45.351Z,25.50
2023-02-22T20:24:15.038Z,19.03
2023-02-22T20:26:43.183Z,20.40
2023-02-22T20:29:10.887Z,21.70
2023-02-22T20:31:39.321Z,22.27
2023-02-22T20:34:06.562Z,20.90
2023-02-22T20:36:37.171Z,21.53
2023-02-22T20:39:07.433Z,18.90
2023-02-22T20:41:35.204Z,19.60
2023-02-22T20:44:02.853Z,23.23
2023-02-22T20:46:37.374Z,19.90
2023-02-22T20:49:07.383Z,20.77
2023-02-22T20:51:34.907Z,17.83
2023-02-22T20:54:02.156Z,25.30
2023-02-22T20:56:30.408Z,19.70
2023-02-22T20:58:58.267Z,18.30
2023-02-22T21:01:25.660Z,19.80
2023-02-22T21:03:52.875Z,26.70
2023-02-22T21:06:21.620Z,20.13
2023-02-22T21:08:53.707Z,24.03
2023-02-22T21:11:21.388Z,18.80
2023-02-22T21:13:48.497Z,18.80
2023-02-22T21:16:23.641Z,17.00
2023-02-22T21:18:51.868Z,19.13
2023-02-22T21:21:19.411Z,18.47
2023-02-22T21:23:49.679Z,21.53
2023-02-22T21:26:17.928Z,27.43
2023-02-22T21:28:52.270Z,18.90
2023-02-22T21:31:24.350Z,18.00
2023-02-22T21:33:52.851Z,17.53
2023-02-22T21:36:20.422Z,23.37
2023-02-22T21:38:53.230Z,16.30
2023-02-22T21:41:21.321Z,22.20
2023-02-22T21:43:52.216Z,17.10
2023-02-22T21:46:19.742Z,19.50
2023-02-22T21:48:50.701Z,19.33
2023-02-22T21:51:23.247Z,19.03
2023-02-22T21:53:52.275Z,19.27
2023-02-22T21:56:22.992Z,18.90
2023-02-22T21:58:54.363Z,20.53
2023-02-22T22:01:21.787Z,20.60
2023-02-22T22:03:48.890Z,20.70
2023-02-22T22:06:15.893Z,18.93
2023-02-22T22:08:43.063Z,22.70
2023-02-22T22:11:11.112Z,18.67
2023-02-22T22:13:39.541Z,23.50
2023-02-22T22:16:08.400Z,17.80
2023-02-22T22:18:36.598Z,26.33
2023-02-22T22:21:10.779Z,29.33
2023-02-22T22:23:41.285Z,23.97
2023-02-22T22:26:11.558Z,23.77
2023-02-22T22:28:42.863Z,27.20
2023-02-22T22:31:10.608Z,24.10
2023-02-22T22:33:38.426Z,22.50
2023-02-22T22:36:06.122Z,31.60
2023-02-22T22:38:34.052Z,33.30
2023-02-22T22:41:01.459Z,27.20
2023-02-22T22:43:29.758Z,26.10
2023-02-22T22:46:00.562Z,29.90
2023-02-22T22:48:29.168Z,30.03
2023-02-22T22:50:57.095Z,22.63
2023-02-22T22:53:24.095Z,29.10
2023-02-22T22:55:51.110Z,25.90
2023-02-22T22:58:18.135Z,25.37
2023-02-22T23:00:46.220Z,24.97
2023-02-22T23:03:16.931Z,24.30
2023-02-22T23:05:44.180Z,26.53
2023-02-22T23:08:12.847Z,25.17
2023-02-22T23:10:40.593Z,26.13
2023-02-22T23:13:15.587Z,25.40
2023-02-22T23:15:43.433Z,34.20
2023-02-22T23:18:10.495Z,25.50
2023-02-22T23:20:38.975Z,29.13
2023-02-22T23:23:06.618Z,30.17
2023-02-22T23:25:34.396Z,25.90
2023-02-22T23:28:01.470Z,32.80
2023-02-22T23:30:28.815Z,29.47
2023-02-22T23:32:57.049Z,29.77
2023-02-22T23:35:24.143Z,28.57
2023-02-22T23:37:53.604Z,31.60
2023-02-22T23:40:21.644Z,27.63
2023-02-22T23:42:49.484Z,29.47
2023-02-22T23:45:23.875Z,27.70
2023-02-22T23:47:55.821Z,30.07
2023-02-22T23:50:23.909Z,33.10
2023-02-22T23:52:56.886Z,29.97
2023-02-22T23:55:28.255Z,30.00
2023-02-22T23:58:01.201Z,34.83
